sensor_id;sensor_type;location;lat;lon;timestamp;P1;durP1;ratioP1;P2;durP2;ratioP2
6348;SDS011;3207;42.648;23.406;2023-02-11T00:00:51;89.77;;;46.73;;
6348;SDS011;3207;42.648;23.406;2023-02-11T00:03:18;84.13;;;46.00;;
6348;SDS011;3207;42.648;23.406;2023-02-11T00:05:46;76.00;;;44.60;;
6348;SDS011;3207;42.648;23.406;2023-02-11T00:08:22;79.93;;;46.17;;
6348;SDS011;3207;42.648;23.406;2023-02-11T00:10:50;82.90;;;45.47;;
6348;SDS011;3207;42.648;23.406;2023-02-11T00:13:17;76.67;;;40.53;;
6348;SDS011;3207;42.648;23.406;2023-02-11T00:15:44;78.10;;;44.30;;
6348;SDS011;3207;42.648;23.406;2023-02-11T00:18:11;74.27;;;43.27;;
6348;SDS011;3207;42.648;23.406;2023-02-11T00:20:37;71.20;;;42.17;;
6348;SDS011;3207;42.648;23.406;2023-02-11T00:23:06;81.67;;;43.00;;
6348;SDS011;3207;42.648;23.406;2023-02-11T00:25:33;75.07;;;41.27;;
6348;SDS011;3207;42.648;23.406;2023-02-11T00:28:03;73.43;;;40.23;;
6348;SDS011;3207;42.648;23.406;2023-02-11T00:30:30;76.77;;;42.97;;
6348;SDS011;3207;42.648;23.406;2023-02-11T00:32:57;72.97;;;40.83;;
6348;SDS011;3207;42.648;23.406;2023-02-11T00:35:24;78.77;;;41.57;;
6348;SDS011;3207;42.648;23.406;2023-02-11T00:37:51;75.10;;;42.10;;
6348;SDS011;3207;42.648;23.406;2023-02-11T00:40:20;75.50;;;44.20;;
6348;SDS011;3207;42.648;23.406;2023-02-11T00:42:47;81.07;;;41.67;;
6348;SDS011;3207;42.648;23.406;2023-02-11T00:45:13;77.97;;;42.40;;
6348;SDS011;3207;42.648;23.406;2023-02-11T00:47:40;78.93;;;43.83;;
6348;SDS011;3207;42.648;23.406;2023-02-11T00:50:07;77.63;;;44.43;;
6348;SDS011;3207;42.648;23.406;2023-02-11T00:52:34;78.47;;;42.33;;
6348;SDS011;3207;42.648;23.406;2023-02-11T00:55:01;79.93;;;41.90;;
6348;SDS011;3207;42.648;23.406;2023-02-11T00:57:29;85.47;;;43.00;;
6348;SDS011;3207;42.648;23.406;2023-02-11T00:59:56;76.17;;;44.03;;
6348;SDS011;3207;42.648;23.406;2023-02-11T01:02:23;75.40;;;43.10;;
6348;SDS011;3207;42.648;23.406;2023-02-11T01:04:50;79.87;;;43.80;;
6348;SDS011;3207;42.648;23.406;2023-02-11T01:07:17;75.57;;;43.17;;
6348;SDS011;3207;42.648;23.406;2023-02-11T01:09:43;84.13;;;41.90;;
6348;SDS011;3207;42.648;23.406;2023-02-11T01:12:10;80.40;;;43.80;;
6348;SDS011;3207;42.648;23.406;2023-02-11T01:14:38;77.67;;;42.57;;
6348;SDS011;3207;42.648;23.406;2023-02-11T01:17:05;80.70;;;42.87;;
6348;SDS011;3207;42.648;23.406;2023-02-11T01:19:32;80.83;;;44.87;;
6348;SDS011;3207;42.648;23.406;2023-02-11T01:21:59;78.13;;;43.87;;
6348;SDS011;3207;42.648;23.406;2023-02-11T01:24:26;80.07;;;43.93;;
6348;SDS011;3207;42.648;23.406;2023-02-11T01:26:53;77.93;;;45.30;;
6348;SDS011;3207;42.648;23.406;2023-02-11T01:29:20;81.33;;;44.03;;
6348;SDS011;3207;42.648;23.406;2023-02-11T01:31:48;76.73;;;45.10;;
6348;SDS011;3207;42.648;23.406;2023-02-11T01:34:15;80.80;;;45.00;;
6348;SDS011;3207;42.648;23.406;2023-02-11T01:36:42;74.23;;;43.07;;
6348;SDS011;3207;42.648;23.406;2023-02-11T01:39:09;87.10;;;46.67;;
6348;SDS011;3207;42.648;23.406;2023-02-11T01:41:36;76.27;;;43.97;;
6348;SDS011;3207;42.648;23.406;2023-02-11T01:46:53;83.03;;;44.90;;
6348;SDS011;3207;42.648;23.406;2023-02-11T01:49:21;81.73;;;44.57;;
6348;SDS011;3207;42.648;23.406;2023-02-11T01:51:52;81.57;;;45.73;;
6348;SDS011;3207;42.648;23.406;2023-02-11T01:54:24;85.57;;;46.27;;
6348;SDS011;3207;42.648;23.406;2023-02-11T01:57:12;88.00;;;44.27;;
6348;SDS011;3207;42.648;23.406;2023-02-11T01:59:51;82.37;;;44.80;;
6348;SDS011;3207;42.648;23.406;2023-02-11T02:02:29;86.93;;;45.00;;
6348;SDS011;3207;42.648;23.406;2023-02-11T02:05:03;94.77;;;47.90;;
6348;SDS011;3207;42.648;23.406;2023-02-11T02:07:36;76.67;;;42.97;;
6348;SDS011;3207;42.648;23.406;2023-02-11T02:10:11;86.13;;;46.00;;
6348;SDS011;3207;42.648;23.406;2023-02-11T02:12:43;77.33;;;44.37;;
6348;SDS011;3207;42.648;23.406;2023-02-11T02:15:13;82.53;;;42.60;;
6348;SDS011;3207;42.648;23.406;2023-02-11T02:17:48;82.67;;;45.87;;
6348;SDS011;3207;42.648;23.406;2023-02-11T02:23:38;82.73;;;44.23;;
6348;SDS011;3207;42.648;23.406;2023-02-11T02:29:22;81.40;;;44.37;;
6348;SDS011;3207;42.648;23.406;2023-02-11T02:32:16;83.53;;;43.73;;
6348;SDS011;3207;42.648;23.406;2023-02-11T02:35:19;74.70;;;40.00;;
6348;SDS011;3207;42.648;23.406;2023-02-11T02:37:55;85.87;;;44.47;;
6348;SDS011;3207;42.648;23.406;2023-02-11T02:40:28;76.63;;;43.00;;
6348;SDS011;3207;42.648;23.406;2023-02-11T02:42:59;77.07;;;45.13;;
6348;SDS011;3207;42.648;23.406;2023-02-11T02:45:28;78.63;;;43.73;;
6348;SDS011;3207;42.648;23.406;2023-02-11T02:47:57;76.47;;;42.40;;
6348;SDS011;3207;42.648;23.406;2023-02-11T02:50:25;84.40;;;44.47;;
6348;SDS011;3207;42.648;23.406;2023-02-11T02:52:59;70.67;;;40.37;;
6348;SDS011;3207;42.648;23.406;2023-02-11T02:55:41;75.13;;;40.77;;
6348;SDS011;3207;42.648;23.406;2023-02-11T02:58:30;82.33;;;42.03;;
6348;SDS011;3207;42.648;23.406;2023-02-11T03:01:12;82.23;;;41.87;;
6348;SDS011;3207;42.648;23.406;2023-02-11T03:03:51;74.63;;;41.83;;
6348;SDS011;3207;42.648;23.406;2023-02-11T03:06:24;72.63;;;39.30;;
6348;SDS011;3207;42.648;23.406;2023-02-11T03:08:58;72.20;;;40.43;;
6348;SDS011;3207;42.648;23.406;2023-02-11T03:11:31;79.57;;;42.10;;
6348;SDS011;3207;42.648;23.406;2023-02-11T03:13:59;69.07;;;40.27;;
6348;SDS011;3207;42.648;23.406;2023-02-11T03:16:28;76.20;;;43.17;;
6348;SDS011;3207;42.648;23.406;2023-02-11T03:19:02;75.07;;;41.83;;
6348;SDS011;3207;42.648;23.406;2023-02-11T03:21:34;75.70;;;39.53;;
6348;SDS011;3207;42.648;23.406;2023-02-11T03:24:04;76.40;;;40.93;;
6348;SDS011;3207;42.648;23.406;2023-02-11T03:26:34;80.57;;;40.80;;
6348;SDS011;3207;42.648;23.406;2023-02-11T03:29:07;68.50;;;38.30;;
6348;SDS011;3207;42.648;23.406;2023-02-11T03:31:41;69.03;;;37.77;;
6348;SDS011;3207;42.648;23.406;2023-02-11T03:34:18;71.53;;;39.40;;
6348;SDS011;3207;42.648;23.406;2023-02-11T03:36:52;77.87;;;41.00;;
6348;SDS011;3207;42.648;23.406;2023-02-11T03:39:23;75.70;;;38.37;;
6348;SDS011;3207;42.648;23.406;2023-02-11T03:41:52;77.37;;;40.17;;
6348;SDS011;3207;42.648;23.406;2023-02-11T03:44:22;64.87;;;36.07;;
6348;SDS011;3207;42.648;23.406;2023-02-11T03:46:53;72.30;;;38.77;;
6348;SDS011;3207;42.648;23.406;2023-02-11T03:49:23;70.27;;;37.10;;
6348;SDS011;3207;42.648;23.406;2023-02-11T03:51:52;68.20;;;36.97;;
6348;SDS011;3207;42.648;23.406;2023-02-11T03:54:23;71.57;;;37.27;;
6348;SDS011;3207;42.648;23.406;2023-02-11T03:56:53;71.90;;;36.53;;
6348;SDS011;3207;42.648;23.406;2023-02-11T03:59:22;70.17;;;37.57;;
6348;SDS011;3207;42.648;23.406;2023-02-11T04:01:49;64.20;;;34.27;;
6348;SDS011;3207;42.648;23.406;2023-02-11T04:04:16;67.17;;;37.53;;
6348;SDS011;3207;42.648;23.406;2023-02-11T04:06:44;70.47;;;37.53;;
6348;SDS011;3207;42.648;23.406;2023-02-11T04:09:12;72.07;;;37.17;;
6348;SDS011;3207;42.648;23.406;2023-02-11T04:11:39;65.33;;;37.30;;
6348;SDS011;3207;42.648;23.406;2023-02-11T04:14:06;65.67;;;38.47;;
6348;SDS011;3207;42.648;23.406;2023-02-11T04:16:33;71.20;;;37.20;;
6348;SDS011;3207;42.648;23.406;2023-02-11T04:19:00;60.70;;;35.63;;
6348;SDS011;3207;42.648;23.406;2023-02-11T04:21:27;60.77;;;35.43;;
6348;SDS011;3207;42.648;23.406;2023-02-11T04:23:55;62.03;;;34.97;;
6348;SDS011;3207;42.648;23.406;2023-02-11T04:26:21;70.10;;;37.20;;
6348;SDS011;3207;42.648;23.406;2023-02-11T04:28:48;62.77;;;35.53;;
6348;SDS011;3207;42.648;23.406;2023-02-11T04:31:15;64.23;;;34.70;;
6348;SDS011;3207;42.648;23.406;2023-02-11T04:33:42;61.90;;;35.43;;
6348;SDS011;3207;42.648;23.406;2023-02-11T04:36:09;56.30;;;34.50;;
6348;SDS011;3207;42.648;23.406;2023-02-11T04:38:36;64.37;;;34.67;;
6348;SDS011;3207;42.648;23.406;2023-02-11T04:41:04;56.13;;;34.50;;
6348;SDS011;3207;42.648;23.406;2023-02-11T04:43:31;72.60;;;36.50;;
6348;SDS011;3207;42.648;23.406;2023-02-11T04:45:58;65.97;;;35.47;;
6348;SDS011;3207;42.648;23.406;2023-02-11T04:48:25;60.33;;;32.37;;
6348;SDS011;3207;42.648;23.406;2023-02-11T04:50:52;63.93;;;34.00;;
6348;SDS011;3207;42.648;23.406;2023-02-11T04:53:18;66.40;;;36.00;;
6348;SDS011;3207;42.648;23.406;2023-02-11T04:55:47;56.00;;;32.30;;
6348;SDS011;3207;42.648;23.406;2023-02-11T04:58:15;64.40;;;35.27;;
6348;SDS011;3207;42.648;23.406;2023-02-11T05:00:42;56.47;;;32.53;;
6348;SDS011;3207;42.648;23.406;2023-02-11T05:03:09;64.87;;;33.83;;
6348;SDS011;3207;42.648;23.406;2023-02-11T05:05:36;62.43;;;35.17;;
6348;SDS011;3207;42.648;23.406;2023-02-11T05:08:04;60.80;;;32.83;;
6348;SDS011;3207;42.648;23.406;2023-02-11T05:10:31;54.77;;;30.00;;
6348;SDS011;3207;42.648;23.406;2023-02-11T05:12:58;50.83;;;31.37;;
6348;SDS011;3207;42.648;23.406;2023-02-11T05:15:26;59.37;;;32.27;;
6348;SDS011;3207;42.648;23.406;2023-02-11T05:17:54;54.43;;;30.93;;
6348;SDS011;3207;42.648;23.406;2023-02-11T05:20:21;56.43;;;31.00;;
6348;SDS011;3207;42.648;23.406;2023-02-11T05:22:48;53.60;;;29.10;;
6348;SDS011;3207;42.648;23.406;2023-02-11T05:25:15;52.07;;;30.60;;
6348;SDS011;3207;42.648;23.406;2023-02-11T05:27:41;59.97;;;31.73;;
6348;SDS011;3207;42.648;23.406;2023-02-11T05:30:09;56.13;;;30.87;;
6348;SDS011;3207;42.648;23.406;2023-02-11T05:32:38;60.67;;;32.07;;
6348;SDS011;3207;42.648;23.406;2023-02-11T05:35:05;51.40;;;31.87;;
6348;SDS011;3207;42.648;23.406;2023-02-11T05:37:32;57.43;;;30.80;;
6348;SDS011;3207;42.648;23.406;2023-02-11T05:39:59;52.07;;;31.80;;
6348;SDS011;3207;42.648;23.406;2023-02-11T05:42:25;57.30;;;31.27;;
6348;SDS011;3207;42.648;23.406;2023-02-11T05:44:52;58.07;;;32.33;;
6348;SDS011;3207;42.648;23.406;2023-02-11T05:47:19;58.53;;;33.43;;
6348;SDS011;3207;42.648;23.406;2023-02-11T05:49:47;57.67;;;34.27;;
6348;SDS011;3207;42.648;23.406;2023-02-11T05:52:14;61.27;;;32.97;;
6348;SDS011;3207;42.648;23.406;2023-02-11T05:54:41;54.40;;;32.07;;
6348;SDS011;3207;42.648;23.406;2023-02-11T05:57:08;62.03;;;35.00;;
6348;SDS011;3207;42.648;23.406;2023-02-11T05:59:34;59.47;;;32.57;;
6348;SDS011;3207;42.648;23.406;2023-02-11T06:02:01;68.60;;;34.80;;
6348;SDS011;3207;42.648;23.406;2023-02-11T06:04:28;63.90;;;33.60;;
6348;SDS011;3207;42.648;23.406;2023-02-11T06:06:56;62.63;;;35.50;;
6348;SDS011;3207;42.648;23.406;2023-02-11T06:09:23;59.47;;;33.73;;
6348;SDS011;3207;42.648;23.406;2023-02-11T06:11:50;54.10;;;31.53;;
6348;SDS011;3207;42.648;23.406;2023-02-11T06:14:17;58.97;;;34.23;;
6348;SDS011;3207;42.648;23.406;2023-02-11T06:16:44;61.13;;;35.83;;
6348;SDS011;3207;42.648;23.406;2023-02-11T06:19:11;60.20;;;35.73;;
6348;SDS011;3207;42.648;23.406;2023-02-11T06:21:38;60.40;;;35.00;;
6348;SDS011;3207;42.648;23.406;2023-02-11T06:24:07;61.27;;;34.87;;
6348;SDS011;3207;42.648;23.406;2023-02-11T06:26:33;66.87;;;34.83;;
6348;SDS011;3207;42.648;23.406;2023-02-11T06:29:00;63.33;;;34.90;;
6348;SDS011;3207;42.648;23.406;2023-02-11T06:31:27;64.43;;;34.97;;
6348;SDS011;3207;42.648;23.406;2023-02-11T06:33:54;74.37;;;37.17;;
6348;SDS011;3207;42.648;23.406;2023-02-11T06:36:21;63.57;;;38.90;;
6348;SDS011;3207;42.648;23.406;2023-02-11T06:38:48;66.90;;;36.87;;
6348;SDS011;3207;42.648;23.406;2023-02-11T06:41:17;78.87;;;41.17;;
6348;SDS011;3207;42.648;23.406;2023-02-11T06:43:45;73.07;;;42.90;;
6348;SDS011;3207;42.648;23.406;2023-02-11T06:46:12;71.83;;;41.50;;
6348;SDS011;3207;42.648;23.406;2023-02-11T06:48:39;69.37;;;40.77;;
6348;SDS011;3207;42.648;23.406;2023-02-11T06:51:07;62.47;;;36.90;;
6348;SDS011;3207;42.648;23.406;2023-02-11T06:53:38;63.70;;;35.97;;
6348;SDS011;3207;42.648;23.406;2023-02-11T06:56:07;59.77;;;38.03;;
6348;SDS011;3207;42.648;23.406;2023-02-11T06:58:36;62.67;;;36.07;;
6348;SDS011;3207;42.648;23.406;2023-02-11T07:01:07;63.00;;;35.67;;
6348;SDS011;3207;42.648;23.406;2023-02-11T07:03:37;60.73;;;36.80;;
6348;SDS011;3207;42.648;23.406;2023-02-11T07:06:06;63.47;;;36.53;;
6348;SDS011;3207;42.648;23.406;2023-02-11T07:08:33;58.40;;;37.73;;
6348;SDS011;3207;42.648;23.406;2023-02-11T07:11:01;63.23;;;37.33;;
6348;SDS011;3207;42.648;23.406;2023-02-11T07:13:34;52.13;;;35.93;;
6348;SDS011;3207;42.648;23.406;2023-02-11T07:16:04;58.30;;;37.83;;
6348;SDS011;3207;42.648;23.406;2023-02-11T07:18:31;61.28;;;39.33;;
6348;SDS011;3207;42.648;23.406;2023-02-11T07:20:58;56.65;;;40.95;;
6348;SDS011;3207;42.648;23.406;2023-02-11T07:23:25;54.95;;;38.97;;
6348;SDS011;3207;42.648;23.406;2023-02-11T07:25:52;52.00;;;39.50;;
6348;SDS011;3207;42.648;23.406;2023-02-11T07:28:18;51.88;;;39.78;;
6348;SDS011;3207;42.648;23.406;2023-02-11T07:30:45;50.63;;;38.83;;
6348;SDS011;3207;42.648;23.406;2023-02-11T07:33:14;54.45;;;43.33;;
6348;SDS011;3207;42.648;23.406;2023-02-11T07:35:41;51.75;;;41.65;;
6348;SDS011;3207;42.648;23.406;2023-02-11T07:38:08;54.08;;;43.67;;
6348;SDS011;3207;42.648;23.406;2023-02-11T07:40:35;50.92;;;41.10;;
6348;SDS011;3207;42.648;23.406;2023-02-11T07:43:02;53.40;;;40.65;;
6348;SDS011;3207;42.648;23.406;2023-02-11T07:45:29;48.47;;;41.30;;
6348;SDS011;3207;42.648;23.406;2023-02-11T07:47:55;56.63;;;45.55;;
6348;SDS011;3207;42.648;23.406;2023-02-11T07:50:24;54.67;;;42.28;;
6348;SDS011;3207;42.648;23.406;2023-02-11T07:52:51;46.30;;;39.75;;
6348;SDS011;3207;42.648;23.406;2023-02-11T07:55:17;45.90;;;40.97;;
6348;SDS011;3207;42.648;23.406;2023-02-11T07:57:44;45.17;;;40.28;;
6348;SDS011;3207;42.648;23.406;2023-02-11T08:00:12;49.55;;;43.17;;
6348;SDS011;3207;42.648;23.406;2023-02-11T08:02:39;49.08;;;43.58;;
6348;SDS011;3207;42.648;23.406;2023-02-11T08:05:06;50.60;;;41.92;;
6348;SDS011;3207;42.648;23.406;2023-02-11T08:07:35;46.95;;;41.47;;
6348;SDS011;3207;42.648;23.406;2023-02-11T08:10:02;50.17;;;44.70;;
6348;SDS011;3207;42.648;23.406;2023-02-11T08:12:29;52.03;;;46.42;;
6348;SDS011;3207;42.648;23.406;2023-02-11T08:14:56;51.20;;;45.75;;
6348;SDS011;3207;42.648;23.406;2023-02-11T08:17:22;52.28;;;46.88;;
6348;SDS011;3207;42.648;23.406;2023-02-11T08:19:49;54.72;;;48.28;;
6348;SDS011;3207;42.648;23.406;2023-02-11T08:22:16;55.35;;;49.47;;
6348;SDS011;3207;42.648;23.406;2023-02-11T08:24:44;53.08;;;47.47;;
6348;SDS011;3207;42.648;23.406;2023-02-11T08:27:11;53.80;;;48.28;;
6348;SDS011;3207;42.648;23.406;2023-02-11T08:29:38;54.92;;;49.50;;
6348;SDS011;3207;42.648;23.406;2023-02-11T08:32:05;54.17;;;48.45;;
6348;SDS011;3207;42.648;23.406;2023-02-11T08:34:32;53.55;;;48.28;;
6348;SDS011;3207;42.648;23.406;2023-02-11T08:36:59;53.55;;;48.20;;
6348;SDS011;3207;42.648;23.406;2023-02-11T08:39:26;49.17;;;44.10;;
6348;SDS011;3207;42.648;23.406;2023-02-11T08:41:54;51.67;;;46.58;;
6348;SDS011;3207;42.648;23.406;2023-02-11T08:44:22;50.33;;;45.25;;
6348;SDS011;3207;42.648;23.406;2023-02-11T08:46:50;51.47;;;46.33;;
6348;SDS011;3207;42.648;23.406;2023-02-11T08:49:17;46.83;;;42.20;;
6348;SDS011;3207;42.648;23.406;2023-02-11T08:51:45;46.70;;;42.40;;
6348;SDS011;3207;42.648;23.406;2023-02-11T08:54:13;48.20;;;43.42;;
6348;SDS011;3207;42.648;23.406;2023-02-11T08:56:42;44.88;;;40.58;;
6348;SDS011;3207;42.648;23.406;2023-02-11T08:59:12;44.97;;;40.78;;
6348;SDS011;3207;42.648;23.406;2023-02-11T09:01:41;46.63;;;42.13;;
6348;SDS011;3207;42.648;23.406;2023-02-11T09:04:10;47.35;;;42.75;;
6348;SDS011;3207;42.648;23.406;2023-02-11T09:06:37;48.35;;;43.55;;
6348;SDS011;3207;42.648;23.406;2023-02-11T09:09:04;46.63;;;40.40;;
6348;SDS011;3207;42.648;23.406;2023-02-11T09:11:33;43.88;;;39.03;;
6348;SDS011;3207;42.648;23.406;2023-02-11T09:14:01;46.25;;;40.00;;
6348;SDS011;3207;42.648;23.406;2023-02-11T09:16:31;42.72;;;36.67;;
6348;SDS011;3207;42.648;23.406;2023-02-11T09:18:59;43.97;;;37.72;;
6348;SDS011;3207;42.648;23.406;2023-02-11T09:21:27;49.60;;;37.13;;
6348;SDS011;3207;42.648;23.406;2023-02-11T09:23:55;42.15;;;34.50;;
6348;SDS011;3207;42.648;23.406;2023-02-11T09:26:23;44.35;;;35.47;;
6348;SDS011;3207;42.648;23.406;2023-02-11T09:28:50;44.55;;;35.65;;
6348;SDS011;3207;42.648;23.406;2023-02-11T09:31:19;42.67;;;31.05;;
6348;SDS011;3207;42.648;23.406;2023-02-11T09:33:51;38.90;;;29.60;;
6348;SDS011;3207;42.648;23.406;2023-02-11T09:36:19;41.40;;;31.00;;
6348;SDS011;3207;42.648;23.406;2023-02-11T09:38:48;33.72;;;26.05;;
6348;SDS011;3207;42.648;23.406;2023-02-11T09:44:30;35.00;;;26.42;;
6348;SDS011;3207;42.648;23.406;2023-02-11T09:47:01;35.25;;;28.65;;
6348;SDS011;3207;42.648;23.406;2023-02-11T09:49:33;32.75;;;24.80;;
6348;SDS011;3207;42.648;23.406;2023-02-11T09:52:05;37.13;;;27.27;;
6348;SDS011;3207;42.648;23.406;2023-02-11T09:54:40;36.88;;;27.40;;
6348;SDS011;3207;42.648;23.406;2023-02-11T09:57:19;32.95;;;27.58;;
6348;SDS011;3207;42.648;23.406;2023-02-11T09:59:45;41.03;;;27.17;;
6348;SDS011;3207;42.648;23.406;2023-02-11T10:02:16;44.80;;;32.85;;
6348;SDS011;3207;42.648;23.406;2023-02-11T10:05:01;42.97;;;29.57;;
6348;SDS011;3207;42.648;23.406;2023-02-11T10:07:47;39.50;;;27.10;;
6348;SDS011;3207;42.648;23.406;2023-02-11T10:10:27;38.00;;;25.43;;
6348;SDS011;3207;42.648;23.406;2023-02-11T10:13:12;32.95;;;24.30;;
6348;SDS011;3207;42.648;23.406;2023-02-11T10:15:56;45.38;;;24.58;;
6348;SDS011;3207;42.648;23.406;2023-02-11T10:18:34;35.75;;;23.67;;
6348;SDS011;3207;42.648;23.406;2023-02-11T10:21:14;39.17;;;24.90;;
6348;SDS011;3207;42.648;23.406;2023-02-11T10:23:50;37.42;;;25.98;;
6348;SDS011;3207;42.648;23.406;2023-02-11T10:26:19;36.15;;;26.20;;
6348;SDS011;3207;42.648;23.406;2023-02-11T10:28:48;35.95;;;26.48;;
6348;SDS011;3207;42.648;23.406;2023-02-11T10:31:19;33.17;;;26.10;;
6348;SDS011;3207;42.648;23.406;2023-02-11T10:33:50;33.22;;;25.60;;
6348;SDS011;3207;42.648;23.406;2023-02-11T10:36:20;30.00;;;25.40;;
6348;SDS011;3207;42.648;23.406;2023-02-11T10:38:48;31.63;;;26.95;;
6348;SDS011;3207;42.648;23.406;2023-02-11T10:41:16;34.33;;;27.17;;
6348;SDS011;3207;42.648;23.406;2023-02-11T10:43:43;32.35;;;27.55;;
6348;SDS011;3207;42.648;23.406;2023-02-11T10:46:12;29.73;;;26.70;;
6348;SDS011;3207;42.648;23.406;2023-02-11T10:48:41;32.33;;;28.95;;
6348;SDS011;3207;42.648;23.406;2023-02-11T10:51:15;34.67;;;31.08;;
6348;SDS011;3207;42.648;23.406;2023-02-11T10:53:45;34.50;;;30.77;;
6348;SDS011;3207;42.648;23.406;2023-02-11T10:56:17;33.40;;;30.20;;
6348;SDS011;3207;42.648;23.406;2023-02-11T10:58:53;33.55;;;30.27;;
6348;SDS011;3207;42.648;23.406;2023-02-11T11:01:22;35.15;;;31.45;;
6348;SDS011;3207;42.648;23.406;2023-02-11T11:04:03;33.03;;;29.67;;
6348;SDS011;3207;42.648;23.406;2023-02-11T11:06:31;30.52;;;27.67;;
6348;SDS011;3207;42.648;23.406;2023-02-11T11:09:01;32.80;;;29.67;;
6348;SDS011;3207;42.648;23.406;2023-02-11T11:11:28;27.58;;;25.10;;
6348;SDS011;3207;42.648;23.406;2023-02-11T11:13:56;26.95;;;24.38;;
6348;SDS011;3207;42.648;23.406;2023-02-11T11:16:25;30.70;;;27.65;;
6348;SDS011;3207;42.648;23.406;2023-02-11T11:21:47;25.17;;;22.77;;
6348;SDS011;3207;42.648;23.406;2023-02-11T11:24:18;23.67;;;21.02;;
6348;SDS011;3207;42.648;23.406;2023-02-11T11:26:48;27.42;;;18.90;;
6348;SDS011;3207;42.648;23.406;2023-02-11T11:29:16;24.58;;;20.27;;
6348;SDS011;3207;42.648;23.406;2023-02-11T11:31:46;21.35;;;17.98;;
6348;SDS011;3207;42.648;23.406;2023-02-11T11:34:21;22.10;;;18.05;;
6348;SDS011;3207;42.648;23.406;2023-02-11T11:36:52;20.77;;;17.88;;
6348;SDS011;3207;42.648;23.406;2023-02-11T11:39:23;22.58;;;18.90;;
6348;SDS011;3207;42.648;23.406;2023-02-11T11:41:52;25.45;;;18.13;;
6348;SDS011;3207;42.648;23.406;2023-02-11T11:44:27;22.75;;;19.45;;
6348;SDS011;3207;42.648;23.406;2023-02-11T11:47:17;23.88;;;19.75;;
6348;SDS011;3207;42.648;23.406;2023-02-11T11:49:54;21.80;;;17.75;;
6348;SDS011;3207;42.648;23.406;2023-02-11T11:52:47;21.50;;;18.60;;
6348;SDS011;3207;42.648;23.406;2023-02-11T11:55:21;23.25;;;17.98;;
6348;SDS011;3207;42.648;23.406;2023-02-11T11:57:52;21.85;;;18.30;;
6348;SDS011;3207;42.648;23.406;2023-02-11T12:00:20;22.55;;;17.60;;
6348;SDS011;3207;42.648;23.406;2023-02-11T12:03:12;20.67;;;17.33;;
6348;SDS011;3207;42.648;23.406;2023-02-11T12:06:13;22.75;;;17.70;;
6348;SDS011;3207;42.648;23.406;2023-02-11T12:08:52;20.95;;;16.75;;
6348;SDS011;3207;42.648;23.406;2023-02-11T12:11:30;19.98;;;16.95;;
6348;SDS011;3207;42.648;23.406;2023-02-11T12:14:05;21.42;;;17.58;;
6348;SDS011;3207;42.648;23.406;2023-02-11T12:16:43;20.95;;;16.92;;
6348;SDS011;3207;42.648;23.406;2023-02-11T12:22:33;20.35;;;16.90;;
6348;SDS011;3207;42.648;23.406;2023-02-11T12:25:16;22.65;;;16.83;;
6348;SDS011;3207;42.648;23.406;2023-02-11T12:27:53;21.73;;;17.42;;
6348;SDS011;3207;42.648;23.406;2023-02-11T12:30:31;22.27;;;16.63;;
6348;SDS011;3207;42.648;23.406;2023-02-11T12:33:11;19.17;;;16.40;;
6348;SDS011;3207;42.648;23.406;2023-02-11T12:35:47;21.25;;;16.40;;
6348;SDS011;3207;42.648;23.406;2023-02-11T12:41:43;19.05;;;16.60;;
6348;SDS011;3207;42.648;23.406;2023-02-11T12:44:39;24.80;;;19.08;;
6348;SDS011;3207;42.648;23.406;2023-02-11T12:47:22;22.30;;;17.42;;
6348;SDS011;3207;42.648;23.406;2023-02-11T12:49:59;24.85;;;18.42;;
6348;SDS011;3207;42.648;23.406;2023-02-11T12:52:38;24.50;;;16.67;;
6348;SDS011;3207;42.648;23.406;2023-02-11T12:55:18;23.48;;;17.25;;
6348;SDS011;3207;42.648;23.406;2023-02-11T12:57:49;23.98;;;17.40;;
6348;SDS011;3207;42.648;23.406;2023-02-11T13:00:21;20.60;;;17.05;;
6348;SDS011;3207;42.648;23.406;2023-02-11T13:02:53;22.98;;;18.35;;
6348;SDS011;3207;42.648;23.406;2023-02-11T13:05:26;22.42;;;16.20;;
6348;SDS011;3207;42.648;23.406;2023-02-11T13:07:55;21.63;;;17.65;;
6348;SDS011;3207;42.648;23.406;2023-02-11T13:10:29;22.48;;;17.38;;
6348;SDS011;3207;42.648;23.406;2023-02-11T13:13:00;22.17;;;16.90;;
6348;SDS011;3207;42.648;23.406;2023-02-11T13:15:44;22.63;;;18.25;;
6348;SDS011;3207;42.648;23.406;2023-02-11T13:18:19;24.65;;;18.42;;
6348;SDS011;3207;42.648;23.406;2023-02-11T13:20:57;25.33;;;18.60;;
6348;SDS011;3207;42.648;23.406;2023-02-11T13:23:33;22.50;;;17.45;;
6348;SDS011;3207;42.648;23.406;2023-02-11T13:26:09;23.30;;;17.85;;
6348;SDS011;3207;42.648;23.406;2023-02-11T13:28:44;23.73;;;18.80;;
6348;SDS011;3207;42.648;23.406;2023-02-11T13:31:18;22.58;;;17.35;;
6348;SDS011;3207;42.648;23.406;2023-02-11T13:33:45;21.80;;;17.02;;
6348;SDS011;3207;42.648;23.406;2023-02-11T13:36:17;23.75;;;17.20;;
6348;SDS011;3207;42.648;23.406;2023-02-11T13:38:53;20.70;;;16.38;;
6348;SDS011;3207;42.648;23.406;2023-02-11T13:41:24;19.98;;;16.38;;
6348;SDS011;3207;42.648;23.406;2023-02-11T13:43:58;20.02;;;16.27;;
6348;SDS011;3207;42.648;23.406;2023-02-11T13:49:18;21.08;;;16.52;;
6348;SDS011;3207;42.648;23.406;2023-02-11T13:51:48;20.75;;;16.98;;
6348;SDS011;3207;42.648;23.406;2023-02-11T13:54:19;23.35;;;16.48;;
6348;SDS011;3207;42.648;23.406;2023-02-11T14:00:08;24.20;;;16.23;;
6348;SDS011;3207;42.648;23.406;2023-02-11T14:03:24;19.33;;;15.02;;
6348;SDS011;3207;42.648;23.406;2023-02-11T14:06:12;23.80;;;17.35;;
6348;SDS011;3207;42.648;23.406;2023-02-11T14:15:09;21.48;;;16.13;;
6348;SDS011;3207;42.648;23.406;2023-02-11T14:17:44;24.27;;;16.60;;
6348;SDS011;3207;42.648;23.406;2023-02-11T14:23:02;23.17;;;17.67;;
6348;SDS011;3207;42.648;23.406;2023-02-11T14:25:30;25.23;;;18.52;;
6348;SDS011;3207;42.648;23.406;2023-02-11T14:27:58;21.30;;;16.10;;
6348;SDS011;3207;42.648;23.406;2023-02-11T14:30:33;23.27;;;18.17;;
6348;SDS011;3207;42.648;23.406;2023-02-11T14:36:17;22.27;;;16.50;;
6348;SDS011;3207;42.648;23.406;2023-02-11T14:38:57;18.98;;;15.18;;
6348;SDS011;3207;42.648;23.406;2023-02-11T14:41:31;22.60;;;16.20;;
6348;SDS011;3207;42.648;23.406;2023-02-11T14:44:06;26.05;;;18.55;;
6348;SDS011;3207;42.648;23.406;2023-02-11T14:46:42;20.02;;;15.90;;
6348;SDS011;3207;42.648;23.406;2023-02-11T14:49:11;20.45;;;15.73;;
6348;SDS011;3207;42.648;23.406;2023-02-11T14:51:48;21.80;;;17.40;;
6348;SDS011;3207;42.648;23.406;2023-02-11T14:54:15;20.17;;;15.52;;
6348;SDS011;3207;42.648;23.406;2023-02-11T14:56:46;22.52;;;15.55;;
6348;SDS011;3207;42.648;23.406;2023-02-11T14:59:31;23.30;;;17.52;;
6348;SDS011;3207;42.648;23.406;2023-02-11T15:01:58;23.67;;;17.25;;
6348;SDS011;3207;42.648;23.406;2023-02-11T15:04:26;25.35;;;17.65;;
6348;SDS011;3207;42.648;23.406;2023-02-11T15:06:56;23.83;;;18.48;;
6348;SDS011;3207;42.648;23.406;2023-02-11T15:09:30;22.95;;;17.55;;
6348;SDS011;3207;42.648;23.406;2023-02-11T15:12:02;21.70;;;17.25;;
6348;SDS011;3207;42.648;23.406;2023-02-11T15:14:30;23.10;;;18.77;;
6348;SDS011;3207;42.648;23.406;2023-02-11T15:16:59;24.20;;;17.20;;
6348;SDS011;3207;42.648;23.406;2023-02-11T15:19:29;20.63;;;16.83;;
6348;SDS011;3207;42.648;23.406;2023-02-11T15:22:00;24.92;;;18.13;;
6348;SDS011;3207;42.648;23.406;2023-02-11T15:24:31;23.17;;;17.17;;
6348;SDS011;3207;42.648;23.406;2023-02-11T15:27:00;22.00;;;16.58;;
6348;SDS011;3207;42.648;23.406;2023-02-11T15:29:33;20.75;;;15.82;;
6348;SDS011;3207;42.648;23.406;2023-02-11T15:32:03;21.53;;;17.00;;
6348;SDS011;3207;42.648;23.406;2023-02-11T15:34:32;23.30;;;18.40;;